createdAt,value
2022-11-13T00:02:35.779Z,100.00
2022-11-13T00:05:22.464Z,100.00
2022-11-13T00:08:09.119Z,100.00
2022-11-13T00:11:02.417Z,100.00
2022-11-13T00:13:50.406Z,100.00
2022-11-13T00:16:38.006Z,100.00
2022-11-13T00:19:24.421Z,100.00
2022-11-13T00:22:10.828Z,100.00
2022-11-13T00:24:57.573Z,100.00
2022-11-13T00:27:43.930Z,100.00
2022-11-13T00:30:30.603Z,100.00
2022-11-13T00:33:38.344Z,100.00
2022-11-13T00:36:28.219Z,100.00
2022-11-13T00:39:14.788Z,100.00
2022-11-13T00:42:01.299Z,100.00
2022-11-13T00:44:47.962Z,100.00
2022-11-13T00:47:34.626Z,100.00
2022-11-13T00:50:22.607Z,100.00
2022-11-13T00:53:11.589Z,100.00
2022-11-13T00:56:01.852Z,100.00
2022-11-13T00:58:48.667Z,100.00
2022-11-13T01:01:35.266Z,100.00
2022-11-13T01:04:21.862Z,100.00
2022-11-13T01:07:09.833Z,100.00
2022-11-13T01:09:56.014Z,100.00
2022-11-13T01:12:42.684Z,100.00
2022-11-13T01:15:29.292Z,100.00
2022-11-13T01:18:15.631Z,100.00
2022-11-13T01:21:07.424Z,100.00
2022-11-13T01:23:56.212Z,100.00
2022-11-13T01:26:42.853Z,100.00
2022-11-13T01:29:29.562Z,100.00
2022-11-13T01:32:16.037Z,100.00
2022-11-13T01:35:03.072Z,100.00
2022-11-13T01:37:49.426Z,100.00
2022-11-13T01:40:37.381Z,100.00
2022-11-13T01:43:26.941Z,100.00
2022-11-13T01:46:31.708Z,100.00
2022-11-13T01:49:30.476Z,100.00
2022-11-13T01:52:20.659Z,100.00
2022-11-13T01:55:13.665Z,100.00
2022-11-13T01:58:03.458Z,100.00
2022-11-13T02:00:51.235Z,100.00
2022-11-13T02:03:37.896Z,100.00
2022-11-13T02:06:26.511Z,100.00
2022-11-13T02:09:14.947Z,100.00
2022-11-13T02:12:01.798Z,100.00
2022-11-13T02:14:53.625Z,100.00
2022-11-13T02:17:46.426Z,100.00
2022-11-13T02:20:41.252Z,100.00
2022-11-13T02:23:36.323Z,100.00
2022-11-13T02:26:26.471Z,100.00
2022-11-13T02:29:13.087Z,100.00
2022-11-13T02:31:59.843Z,100.00
2022-11-13T02:34:46.457Z,100.00
2022-11-13T02:37:33.025Z,100.00
2022-11-13T02:40:20.420Z,100.00
2022-11-13T02:43:08.068Z,100.00
2022-11-13T02:45:55.045Z,100.00
2022-11-13T02:48:41.595Z,100.00
2022-11-13T02:51:28.089Z,100.00
2022-11-13T02:54:17.128Z,100.00
2022-11-13T02:57:03.873Z,100.00
2022-11-13T02:59:51.644Z,100.00
2022-11-13T03:02:38.094Z,100.00
2022-11-13T03:05:24.808Z,100.00
2022-11-13T03:08:11.420Z,100.00
2022-11-13T03:10:57.790Z,100.00
2022-11-13T03:13:44.358Z,100.00
2022-11-13T03:16:32.429Z,100.00
2022-11-13T03:19:19.034Z,100.00
2022-11-13T03:22:05.741Z,100.00
2022-11-13T03:24:52.219Z,100.00
2022-11-13T03:27:38.769Z,100.00
2022-11-13T03:30:25.794Z,100.00
2022-11-13T03:33:13.797Z,100.00
2022-11-13T03:36:00.404Z,100.00
2022-11-13T03:38:47.038Z,100.00
2022-11-13T03:41:33.641Z,100.00
2022-11-13T03:44:20.181Z,100.00
2022-11-13T03:47:06.737Z,100.00
2022-11-13T03:49:54.791Z,100.00
2022-11-13T03:52:41.265Z,100.00
2022-11-13T03:55:27.837Z,100.00
2022-11-13T03:58:15.461Z,100.00
2022-11-13T04:01:02.109Z,100.00
2022-11-13T04:03:48.711Z,100.00
2022-11-13T04:06:37.405Z,100.00
2022-11-13T04:09:24.213Z,100.00
2022-11-13T04:12:10.758Z,100.00
2022-11-13T04:14:57.379Z,100.00
2022-11-13T04:17:44.095Z,100.00
2022-11-13T04:20:30.954Z,100.00
2022-11-13T04:23:18.817Z,100.00
2022-11-13T04:26:06.518Z,100.00
2022-11-13T04:28:53.084Z,100.00
2022-11-13T04:31:39.832Z,100.00
2022-11-13T04:34:26.478Z,100.00
2022-11-13T04:37:13.032Z,100.00
2022-11-13T04:40:00.975Z,100.00
2022-11-13T04:42:49.412Z,100.00
2022-11-13T04:45:36.306Z,100.00
2022-11-13T04:48:22.764Z,100.00
2022-11-13T04:51:09.545Z,100.00
2022-11-13T04:53:56.190Z,100.00
2022-11-13T04:56:44.187Z,100.00
2022-11-13T04:59:30.746Z,100.00
2022-11-13T05:02:17.414Z,100.00
2022-11-13T05:05:05.369Z,100.00
2022-11-13T05:07:51.752Z,100.00
2022-11-13T05:10:38.187Z,100.00
2022-11-13T05:13:26.125Z,100.00
2022-11-13T05:16:14.895Z,100.00
2022-11-13T05:19:06.783Z,100.00
2022-11-13T05:21:53.438Z,100.00
2022-11-13T05:24:40.214Z,100.00
2022-11-13T05:27:26.858Z,100.00
2022-11-13T05:30:14.800Z,100.00
2022-11-13T05:33:03.714Z,100.00
2022-11-13T05:35:50.269Z,100.00
2022-11-13T05:38:37.306Z,100.00
2022-11-13T05:41:25.157Z,100.00
2022-11-13T05:44:11.795Z,100.00
2022-11-13T05:46:59.619Z,100.00
2022-11-13T05:49:46.357Z,100.00
2022-11-13T05:52:32.853Z,100.00
2022-11-13T05:55:23.020Z,100.00
2022-11-13T05:58:11.708Z,100.00
2022-11-13T06:01:07.223Z,100.00
2022-11-13T06:03:56.413Z,100.00
2022-11-13T06:06:43.166Z,100.00
2022-11-13T06:09:29.900Z,100.00
2022-11-13T06:12:16.317Z,100.00
2022-11-13T06:15:02.902Z,100.00
2022-11-13T06:17:49.849Z,100.00
2022-11-13T06:20:38.157Z,100.00
2022-11-13T06:23:24.561Z,100.00
2022-11-13T06:26:14.217Z,100.00
2022-11-13T06:29:02.221Z,100.00
2022-11-13T06:31:48.748Z,100.00
2022-11-13T06:34:34.936Z,100.00
2022-11-13T06:37:22.874Z,100.00
2022-11-13T06:40:10.707Z,100.00
2022-11-13T06:42:57.096Z,100.00
2022-11-13T06:45:43.758Z,100.00
2022-11-13T06:48:31.015Z,100.00
2022-11-13T06:51:19.693Z,100.00
2022-11-13T06:54:07.725Z,100.00
2022-11-13T06:56:54.002Z,100.00
2022-11-13T06:59:40.648Z,100.00
2022-11-13T07:02:26.910Z,100.00
2022-11-13T07:05:13.452Z,100.00
2022-11-13T07:08:00.031Z,100.00
2022-11-13T07:10:55.741Z,100.00
2022-11-13T07:13:42.527Z,100.00
2022-11-13T07:16:44.102Z,100.00
2022-11-13T07:19:35.397Z,100.00
2022-11-13T07:22:22.021Z,100.00
2022-11-13T07:25:09.837Z,100.00
2022-11-13T07:27:58.001Z,100.00
2022-11-13T07:30:44.355Z,100.00
2022-11-13T07:33:30.856Z,100.00
2022-11-13T07:36:17.505Z,100.00
2022-11-13T07:39:04.020Z,100.00
2022-11-13T07:41:50.563Z,100.00
2022-11-13T07:44:54.134Z,100.00
2022-11-13T07:47:41.157Z,100.00
2022-11-13T07:50:28.528Z,100.00
2022-11-13T07:53:15.005Z,100.00
2022-11-13T07:56:02.917Z,100.00
2022-11-13T07:58:49.585Z,100.00
2022-11-13T08:01:38.365Z,100.00
2022-11-13T08:04:25.022Z,100.00
2022-11-13T08:07:12.523Z,100.00
2022-11-13T08:09:58.826Z,100.00
2022-11-13T08:12:45.560Z,100.00
2022-11-13T08:15:33.205Z,100.00
2022-11-13T08:18:21.218Z,100.00
2022-11-13T08:21:13.463Z,100.00
2022-11-13T08:24:01.395Z,100.00
2022-11-13T08:26:47.801Z,100.00
2022-11-13T08:29:37.173Z,100.00
2022-11-13T08:32:23.657Z,100.00
2022-11-13T08:35:15.965Z,100.00
2022-11-13T08:38:06.517Z,100.00
2022-11-13T08:40:52.916Z,100.00
2022-11-13T08:43:39.208Z,100.00
2022-11-13T08:46:25.664Z,100.00
2022-11-13T08:49:12.438Z,100.00
2022-11-13T08:52:00.294Z,100.00
2022-11-13T08:54:46.953Z,100.00
2022-11-13T08:57:33.469Z,100.00
2022-11-13T09:00:21.724Z,100.00
2022-11-13T09:03:11.965Z,100.00
2022-11-13T09:05:58.731Z,100.00
2022-11-13T09:08:46.763Z,100.00
2022-11-13T09:11:33.487Z,100.00
2022-11-13T09:14:20.119Z,100.00
2022-11-13T09:17:06.449Z,100.00
2022-11-13T09:19:52.927Z,100.00
2022-11-13T09:22:39.532Z,100.00
2022-11-13T09:25:31.439Z,100.00
2022-11-13T09:28:22.309Z,100.00
2022-11-13T09:31:09.214Z,100.00
2022-11-13T09:33:55.582Z,100.00
2022-11-13T09:36:42.321Z,100.00
2022-11-13T09:39:29.269Z,100.00
2022-11-13T09:42:21.916Z,100.00
2022-11-13T09:45:14.565Z,100.00
2022-11-13T09:48:13.173Z,100.00
2022-11-13T09:51:02.381Z,100.00
2022-11-13T09:53:48.737Z,100.00
2022-11-13T09:56:39.650Z,100.00
2022-11-13T09:59:35.668Z,100.00
2022-11-13T10:02:26.896Z,100.00
2022-11-13T10:05:22.071Z,100.00
2022-11-13T10:08:08.978Z,100.00
2022-11-13T10:11:04.754Z,100.00
2022-11-13T10:13:55.133Z,100.00
2022-11-13T10:16:47.170Z,100.00
2022-11-13T10:19:41.263Z,100.00
2022-11-13T10:22:35.342Z,100.00
2022-11-13T10:25:24.309Z,100.00
2022-11-13T10:28:48.322Z,100.00
2022-11-13T10:31:21.793Z,100.00
2022-11-13T10:34:10.383Z,100.00
2022-11-13T10:37:07.776Z,100.00
2022-11-13T10:39:54.162Z,100.00
2022-11-13T10:42:43.159Z,100.00
2022-11-13T10:45:29.796Z,100.00
2022-11-13T10:48:22.097Z,100.00
2022-11-13T10:51:23.422Z,100.00
2022-11-13T10:54:23.903Z,100.00
2022-11-13T10:57:25.046Z,100.00
2022-11-13T11:00:23.397Z,100.00
2022-11-13T11:03:10.452Z,100.00
2022-11-13T11:05:58.478Z,100.00
2022-11-13T11:08:46.727Z,100.00
2022-11-13T11:11:50.824Z,100.00
2022-11-13T11:14:42.438Z,100.00
2022-11-13T11:17:35.196Z,98.75
2022-11-13T11:20:27.662Z,100.00
2022-11-13T11:23:24.565Z,98.79
2022-11-13T11:26:17.311Z,97.48
2022-11-13T11:29:13.758Z,95.63
2022-11-13T11:32:08.016Z,95.81
2022-11-13T11:35:00.261Z,94.30
2022-11-13T11:37:52.870Z,95.12
2022-11-13T11:40:43.010Z,95.91
2022-11-13T11:43:40.713Z,94.02
2022-11-13T11:46:28.433Z,94.71
2022-11-13T11:49:15.474Z,92.51
2022-11-13T11:52:13.976Z,92.86
2022-11-13T11:55:15.637Z,92.23
2022-11-13T11:58:14.807Z,93.34
2022-11-13T12:01:14.264Z,91.06
2022-11-13T12:04:24.442Z,92.64
2022-11-13T12:07:23.842Z,89.40
2022-11-13T12:10:23.314Z,86.68
2022-11-13T12:13:29.785Z,78.32
2022-11-13T12:16:25.516Z,66.53
2022-11-13T12:19:22.991Z,69.73
2022-11-13T12:22:18.185Z,66.21
2022-11-13T12:25:18.852Z,65.81
2022-11-13T12:28:15.785Z,66.19
2022-11-13T12:31:14.085Z,63.75
2022-11-13T12:34:08.613Z,58.84
2022-11-13T12:36:56.277Z,54.24
2022-11-13T12:39:52.404Z,60.92
2022-11-13T12:42:45.440Z,59.90
2022-11-13T12:45:45.683Z,57.09
2022-11-13T12:48:35.581Z,55.48
2022-11-13T12:51:23.818Z,58.81
2022-11-13T12:54:11.608Z,57.99
2022-11-13T12:57:17.269Z,58.64
2022-11-13T13:00:24.193Z,58.17
2022-11-13T13:03:27.461Z,60.80
2022-11-13T13:06:30.444Z,62.70
2022-11-13T13:09:32.901Z,68.37
2022-11-13T13:12:33.676Z,69.00
2022-11-13T13:15:31.412Z,72.85
2022-11-13T13:18:29.663Z,76.27
2022-11-13T13:21:19.689Z,75.73
2022-11-13T13:24:30.360Z,79.26
2022-11-13T13:27:23.661Z,80.13
2022-11-13T13:30:18.828Z,79.33
2022-11-13T13:33:17.949Z,81.41
2022-11-13T13:36:16.826Z,79.93
2022-11-13T13:39:11.939Z,81.83
2022-11-13T13:42:14.506Z,84.06
2022-11-13T13:45:19.477Z,84.99
2022-11-13T13:48:12.284Z,84.85
2022-11-13T13:51:01.193Z,84.35
2022-11-13T13:53:49.179Z,84.12
2022-11-13T13:56:40.623Z,83.30
2022-11-13T13:59:33.146Z,84.98
2022-11-13T14:02:23.045Z,85.99
2022-11-13T14:05:25.056Z,86.31
2022-11-13T14:08:18.607Z,85.56
2022-11-13T14:11:17.684Z,85.77
2022-11-13T14:14:11.671Z,87.23
2022-11-13T14:17:01.916Z,87.58
2022-11-13T14:19:50.691Z,89.66
2022-11-13T14:22:37.779Z,89.52
2022-11-13T14:25:28.459Z,89.37
2022-11-13T14:28:17.195Z,88.86
2022-11-13T14:31:06.666Z,88.74
2022-11-13T14:33:54.979Z,92.12
2022-11-13T14:36:41.963Z,92.58
2022-11-13T14:39:31.706Z,93.27
2022-11-13T14:42:21.145Z,93.20
2022-11-13T14:45:19.951Z,92.83
2022-11-13T14:48:19.906Z,93.73
2022-11-13T14:51:23.659Z,94.10
2022-11-13T14:55:00.199Z,96.17
2022-11-13T14:57:48.969Z,96.61
2022-11-13T15:00:37.549Z,96.99
2022-11-13T15:03:24.971Z,97.15
2022-11-13T15:06:16.061Z,97.41
2022-11-13T15:09:02.943Z,98.55
2022-11-13T15:11:49.448Z,97.09
2022-11-13T15:14:43.330Z,99.07
2022-11-13T15:17:30.012Z,99.34
2022-11-13T15:20:18.381Z,100.00
2022-11-13T15:23:10.853Z,100.00
2022-11-13T15:25:57.646Z,100.00
2022-11-13T15:28:44.461Z,100.00
2022-11-13T15:31:33.034Z,100.00
2022-11-13T15:34:19.775Z,100.00
2022-11-13T15:37:12.863Z,100.00
2022-11-13T15:40:00.755Z,100.00
2022-11-13T15:42:47.527Z,100.00
2022-11-13T15:45:34.298Z,100.00
2022-11-13T15:48:21.134Z,100.00
2022-11-13T15:51:14.351Z,100.00
2022-11-13T15:54:03.888Z,100.00
2022-11-13T15:56:51.521Z,100.00
2022-11-13T15:59:38.147Z,100.00
2022-11-13T16:02:25.026Z,100.00
2022-11-13T16:05:11.343Z,100.00
2022-11-13T16:07:58.706Z,100.00
2022-11-13T16:10:45.102Z,100.00
2022-11-13T16:13:33.003Z,100.00
2022-11-13T16:16:23.184Z,100.00
2022-11-13T16:19:14.424Z,100.00
2022-11-13T16:22:01.612Z,100.00
2022-11-13T16:24:50.678Z,100.00
2022-11-13T16:27:37.332Z,100.00
2022-11-13T16:30:26.476Z,100.00
2022-11-13T16:33:13.618Z,100.00
2022-11-13T16:36:00.384Z,100.00
2022-11-13T16:38:47.137Z,100.00
2022-11-13T16:41:34.311Z,100.00
2022-11-13T16:44:20.832Z,100.00
2022-11-13T16:47:21.084Z,100.00
2022-11-13T16:50:14.230Z,100.00
2022-11-13T16:53:01.198Z,100.00
2022-11-13T16:55:47.979Z,100.00
2022-11-13T16:58:34.534Z,100.00
2022-11-13T17:01:22.353Z,100.00
2022-11-13T17:04:14.182Z,100.00
2022-11-13T17:07:00.892Z,100.00
2022-11-13T17:09:55.203Z,100.00
2022-11-13T17:12:51.870Z,100.00
2022-11-13T17:15:38.548Z,100.00
2022-11-13T17:18:24.980Z,100.00
2022-11-13T17:21:12.941Z,100.00
2022-11-13T17:24:01.300Z,100.00
2022-11-13T17:26:48.049Z,100.00
2022-11-13T17:29:35.044Z,100.00
2022-11-13T17:32:21.664Z,100.00
2022-11-13T17:35:09.886Z,100.00
2022-11-13T17:37:58.139Z,100.00
2022-11-13T17:40:44.750Z,100.00
2022-11-13T17:43:31.473Z,100.00
2022-11-13T17:46:19.144Z,100.00
2022-11-13T17:49:05.806Z,100.00
2022-11-13T17:51:52.541Z,100.00
2022-11-13T17:54:40.410Z,100.00
2022-11-13T17:57:27.160Z,100.00
2022-11-13T18:00:14.612Z,100.00
2022-11-13T18:03:00.958Z,100.00
2022-11-13T18:05:47.743Z,100.00
2022-11-13T18:08:34.411Z,100.00
2022-11-13T18:11:24.993Z,100.00
2022-11-13T18:14:11.753Z,100.00
2022-11-13T18:16:58.271Z,100.00
2022-11-13T18:19:44.882Z,100.00
2022-11-13T18:22:31.571Z,100.00
2022-11-13T18:25:25.241Z,100.00
2022-11-13T18:28:17.397Z,100.00
2022-11-13T18:31:07.489Z,100.00
2022-11-13T18:33:57.045Z,100.00
2022-11-13T18:36:43.854Z,100.00
2022-11-13T18:39:30.470Z,100.00
2022-11-13T18:42:17.535Z,100.00
2022-11-13T18:45:16.295Z,100.00
2022-11-13T18:48:04.283Z,100.00
2022-11-13T18:50:56.825Z,100.00
2022-11-13T18:53:45.555Z,100.00
2022-11-13T18:56:33.350Z,100.00
2022-11-13T18:59:20.334Z,100.00
2022-11-13T19:02:10.053Z,100.00
2022-11-13T19:05:01.896Z,100.00
2022-11-13T19:07:48.563Z,100.00
2022-11-13T19:10:35.203Z,100.00
2022-11-13T19:13:21.985Z,100.00
2022-11-13T19:16:14.531Z,100.00
2022-11-13T19:19:04.348Z,100.00
2022-11-13T19:21:51.103Z,100.00
2022-11-13T19:24:37.644Z,100.00
2022-11-13T19:27:24.269Z,100.00
2022-11-13T19:30:11.350Z,100.00
2022-11-13T19:32:57.940Z,100.00
2022-11-13T19:35:45.960Z,100.00
2022-11-13T19:38:40.364Z,100.00
2022-11-13T19:41:28.762Z,100.00
2022-11-13T19:44:15.126Z,100.00
2022-11-13T19:47:02.306Z,100.00
2022-11-13T19:49:48.592Z,100.00
2022-11-13T19:52:37.034Z,100.00
2022-11-13T19:55:23.697Z,100.00
2022-11-13T19:58:12.865Z,100.00
2022-11-13T20:01:00.504Z,100.00
2022-11-13T20:03:49.770Z,100.00
2022-11-13T20:06:36.435Z,100.00
2022-11-13T20:09:26.895Z,100.00
2022-11-13T20:12:13.437Z,100.00
2022-11-13T20:19:09.508Z,100.00
2022-11-13T20:21:56.017Z,100.00
2022-11-13T20:24:44.009Z,100.00
2022-11-13T20:27:30.563Z,100.00
2022-11-13T20:30:17.633Z,100.00
2022-11-13T20:33:06.868Z,100.00
2022-11-13T20:35:55.094Z,100.00
2022-11-13T20:41:52.830Z,100.00
2022-11-13T20:44:39.441Z,100.00
2022-11-13T20:47:26.517Z,100.00
2022-11-13T20:50:13.380Z,100.00
2022-11-13T20:52:59.869Z,100.00
2022-11-13T20:55:46.529Z,100.00
2022-11-13T20:58:34.844Z,100.00
2022-11-13T21:01:23.144Z,100.00
2022-11-13T21:04:09.656Z,100.00
2022-11-13T21:06:56.388Z,100.00
2022-11-13T21:09:46.103Z,100.00
2022-11-13T21:12:35.327Z,100.00
2022-11-13T21:15:23.345Z,100.00
2022-11-13T21:18:09.852Z,100.00
2022-11-13T21:20:56.738Z,100.00
2022-11-13T21:23:43.643Z,100.00
2022-11-13T21:26:32.992Z,100.00
2022-11-13T21:29:22.242Z,100.00
2022-11-13T21:32:10.307Z,100.00
2022-11-13T21:34:59.163Z,100.00
2022-11-13T21:37:45.850Z,100.00
2022-11-13T21:40:32.585Z,100.00
2022-11-13T21:43:19.029Z,100.00
2022-11-13T21:46:06.527Z,100.00
2022-11-13T21:48:58.232Z,100.00
2022-11-13T21:51:44.820Z,100.00
2022-11-13T21:54:31.399Z,100.00
2022-11-13T21:57:19.007Z,100.00
2022-11-13T22:00:06.478Z,100.00
2022-11-13T22:02:53.172Z,100.00
2022-11-13T22:05:41.176Z,100.00
2022-11-13T22:08:28.243Z,100.00
2022-11-13T22:11:14.784Z,100.00
2022-11-13T22:14:01.981Z,100.00
2022-11-13T22:16:49.046Z,100.00
2022-11-13T22:19:36.479Z,100.00
2022-11-13T22:22:25.769Z,100.00
2022-11-13T22:25:12.207Z,100.00
2022-11-13T22:27:58.494Z,100.00
2022-11-13T22:30:49.803Z,100.00
2022-11-13T22:33:37.501Z,100.00
2022-11-13T22:36:25.834Z,100.00
2022-11-13T22:39:13.905Z,100.00
2022-11-13T22:42:02.765Z,100.00
2022-11-13T22:44:55.849Z,100.00
2022-11-13T22:47:43.039Z,100.00
2022-11-13T22:50:29.747Z,100.00
2022-11-13T22:53:16.240Z,100.00
2022-11-13T22:56:07.710Z,100.00
2022-11-13T22:58:55.587Z,100.00
2022-11-13T23:01:43.924Z,100.00
2022-11-13T23:04:30.273Z,100.00
2022-11-13T23:07:16.843Z,100.00
2022-11-13T23:10:03.604Z,100.00
2022-11-13T23:12:51.636Z,100.00
2022-11-13T23:15:38.115Z,100.00
2022-11-13T23:18:24.500Z,100.00
2022-11-13T23:21:12.853Z,100.00
2022-11-13T23:23:59.976Z,100.00
2022-11-13T23:26:46.832Z,100.00
2022-11-13T23:29:34.862Z,100.00
2022-11-13T23:32:21.572Z,100.00
2022-11-13T23:35:08.518Z,100.00
2022-11-13T23:37:55.255Z,100.00
2022-11-13T23:40:41.946Z,100.00
2022-11-13T23:43:47.607Z,100.00
2022-11-13T23:46:37.008Z,100.00
2022-11-13T23:49:23.621Z,100.00
2022-11-13T23:52:10.306Z,100.00
2022-11-13T23:54:56.880Z,100.00
2022-11-13T23:57:43.565Z,100.00
